createdAt,value
2022-08-10T00:00:22.361Z,2.70
2022-08-10T00:02:23.852Z,2.80
2022-08-10T00:04:25.360Z,3.40
2022-08-10T00:06:27.110Z,2.63
2022-08-10T00:08:29.314Z,2.72
2022-08-10T00:10:30.860Z,2.78
2022-08-10T00:12:53.990Z,3.33
2022-08-10T00:14:53.947Z,3.38
2022-08-10T00:16:55.427Z,3.53
2022-08-10T00:18:57.515Z,2.40
2022-08-10T00:20:59.111Z,2.60
2022-08-10T00:23:00.848Z,2.83
2022-08-10T00:25:02.647Z,3.03
2022-08-10T00:27:52.185Z,3.40
2022-08-10T00:29:26.139Z,3.00
2022-08-10T00:31:27.658Z,2.15
2022-08-10T00:33:29.139Z,2.72
2022-08-10T00:35:30.790Z,2.53
2022-08-10T00:37:32.286Z,2.83
2022-08-10T00:39:36.165Z,2.72
2022-08-10T00:41:38.927Z,2.63
2022-08-10T00:43:40.618Z,2.45
2022-08-10T00:45:42.103Z,3.25
2022-08-10T00:47:44.806Z,2.50
2022-08-10T00:49:46.934Z,3.88
2022-08-10T00:51:48.846Z,3.70
2022-08-10T00:53:50.591Z,2.60
2022-08-10T00:57:12.568Z,3.10
2022-08-10T00:58:13.862Z,3.60
2022-08-10T01:00:15.536Z,2.80
2022-08-10T01:02:17.160Z,2.38
2022-08-10T01:04:39.826Z,2.50
2022-08-10T01:07:00.393Z,3.08
2022-08-10T01:09:03.731Z,2.35
2022-08-10T01:12:37.810Z,2.78
2022-08-10T01:13:38.007Z,2.78
2022-08-10T01:15:45.387Z,4.40
2022-08-10T01:18:13.498Z,2.45
2022-08-10T01:20:30.167Z,2.88
2022-08-10T01:22:45.225Z,3.30
2022-08-10T01:25:02.132Z,2.80
2022-08-10T01:27:03.567Z,2.47
2022-08-10T01:29:23.826Z,3.33
2022-08-10T01:31:28.002Z,3.38
2022-08-10T01:33:59.107Z,3.30
2022-08-10T01:35:55.102Z,3.42
2022-08-10T01:38:03.633Z,3.40
2022-08-10T01:40:07.763Z,3.20
2022-08-10T01:44:11.587Z,2.42
2022-08-10T01:46:14.284Z,2.80
2022-08-10T01:48:31.050Z,2.63
2022-08-10T01:50:59.426Z,2.25
2022-08-10T01:53:07.507Z,1.95
2022-08-10T01:55:10.524Z,2.45
2022-08-10T01:57:13.521Z,2.70
2022-08-10T01:59:21.118Z,2.65
2022-08-10T02:01:23.964Z,2.20
2022-08-10T02:03:26.530Z,3.67
2022-08-10T02:05:29.583Z,3.63
2022-08-10T02:07:32.577Z,3.10
2022-08-10T02:09:36.309Z,2.55
2022-08-10T02:12:05.947Z,3.35
2022-08-10T02:14:00.303Z,3.00
2022-08-10T02:16:02.835Z,2.20
2022-08-10T02:18:06.198Z,1.80
2022-08-10T02:20:09.570Z,2.03
2022-08-10T02:22:35.182Z,2.13
2022-08-10T02:24:34.293Z,2.47
2022-08-10T02:26:35.830Z,2.55
2022-08-10T02:28:38.296Z,2.30
2022-08-10T02:30:40.265Z,3.03
2022-08-10T02:32:43.526Z,3.25
2022-08-10T02:34:55.837Z,3.63
2022-08-10T02:37:01.268Z,3.47
2022-08-10T02:39:04.723Z,3.80
2022-08-10T02:45:13.074Z,2.88
2022-08-10T02:45:21.566Z,3.53
2022-08-10T02:46:07.114Z,3.42
2022-08-10T02:48:12.296Z,2.97
2022-08-10T02:50:26.715Z,3.03
2022-08-10T02:54:32.506Z,3.72
2022-08-10T02:56:52.839Z,3.55
2022-08-10T02:59:39.746Z,2.72
2022-08-10T03:01:44.767Z,3.90
2022-08-10T03:03:51.932Z,2.92
2022-08-10T03:05:55.447Z,3.65
2022-08-10T03:08:04.431Z,3.17
2022-08-10T03:10:11.128Z,3.53
2022-08-10T03:12:38.481Z,2.92
2022-08-10T03:14:39.027Z,3.47
2022-08-10T03:16:41.364Z,3.92
2022-08-10T03:18:43.356Z,3.33
2022-08-10T03:20:45.197Z,2.80
2022-08-10T03:22:47.868Z,2.78
2022-08-10T03:24:50.121Z,2.53
2022-08-10T03:26:53.161Z,2.45
2022-08-10T03:28:54.833Z,2.50
2022-08-10T03:30:57.325Z,1.88
2022-08-10T03:32:59.010Z,2.60
2022-08-10T03:35:00.608Z,2.80
2022-08-10T03:37:02.175Z,2.75
2022-08-10T03:39:04.054Z,3.75
2022-08-10T03:41:06.487Z,4.15
2022-08-10T03:43:08.819Z,3.70
2022-08-10T03:45:10.428Z,3.38
2022-08-10T03:47:15.938Z,2.97
2022-08-10T03:49:19.224Z,3.70
2022-08-10T03:51:21.750Z,3.83
2022-08-10T03:53:25.135Z,3.97
2022-08-10T03:56:27.260Z,1.85
2022-08-10T03:58:07.729Z,2.10
2022-08-10T04:00:09.967Z,2.40
2022-08-10T04:02:46.987Z,2.10
2022-08-10T04:04:35.635Z,2.08
2022-08-10T04:06:37.689Z,1.73
2022-08-10T04:08:42.354Z,1.92
2022-08-10T04:10:44.462Z,2.35
2022-08-10T04:12:47.671Z,3.10
2022-08-10T04:14:53.757Z,3.83
2022-08-10T04:16:55.424Z,3.13
2022-08-10T04:18:56.884Z,2.78
2022-08-10T04:21:04.570Z,3.25
2022-08-10T04:23:11.634Z,2.80
2022-08-10T04:25:14.027Z,3.60
2022-08-10T04:27:16.239Z,3.42
2022-08-10T04:29:17.798Z,3.00
2022-08-10T04:31:19.437Z,3.10
2022-08-10T04:33:22.666Z,3.28
2022-08-10T04:35:26.238Z,3.15
2022-08-10T04:37:28.923Z,3.45
2022-08-10T04:39:30.537Z,3.05
2022-08-10T04:41:32.519Z,3.70
2022-08-10T04:43:34.447Z,3.20
2022-08-10T04:45:47.245Z,2.72
2022-08-10T04:48:00.794Z,3.22
2022-08-10T04:50:05.632Z,3.05
2022-08-10T04:52:07.116Z,2.28
2022-08-10T04:54:09.655Z,3.40
2022-08-10T04:56:12.496Z,2.83
2022-08-10T04:58:14.216Z,3.03
2022-08-10T05:00:18.996Z,3.13
2022-08-10T05:02:29.674Z,3.35
2022-08-10T05:04:33.210Z,3.50
2022-08-10T05:06:40.404Z,4.15
2022-08-10T05:08:41.874Z,3.17
2022-08-10T05:10:43.329Z,4.50
2022-08-10T05:12:45.048Z,3.75
2022-08-10T05:14:46.587Z,2.92
2022-08-10T05:16:48.036Z,3.40
2022-08-10T05:18:49.654Z,3.33
2022-08-10T05:20:51.280Z,3.72
2022-08-10T05:22:52.724Z,3.95
2022-08-10T05:24:54.202Z,4.00
2022-08-10T05:27:09.200Z,3.63
2022-08-10T05:29:12.027Z,3.70
2022-08-10T05:31:14.710Z,3.20
2022-08-10T05:33:24.028Z,4.30
2022-08-10T05:35:26.789Z,4.57
2022-08-10T05:38:10.248Z,4.72
2022-08-10T05:39:53.871Z,3.42
2022-08-10T05:41:55.878Z,3.60
2022-08-10T05:44:03.747Z,3.67
2022-08-10T05:46:19.567Z,4.20
2022-08-10T05:48:57.852Z,3.88
2022-08-10T05:50:44.052Z,4.18
2022-08-10T05:52:45.786Z,4.68
2022-08-10T05:54:47.418Z,4.22
2022-08-10T05:56:54.211Z,4.22
2022-08-10T05:58:59.415Z,4.53
2022-08-10T06:01:02.452Z,4.43
2022-08-10T06:03:05.522Z,3.88
2022-08-10T06:05:08.974Z,4.45
2022-08-10T06:07:11.991Z,4.20
2022-08-10T06:09:15.590Z,4.78
2022-08-10T06:12:28.643Z,4.07
2022-08-10T06:14:13.853Z,4.82
2022-08-10T06:16:19.207Z,4.10
2022-08-10T06:18:21.169Z,4.22
2022-08-10T06:20:22.848Z,4.07
2022-08-10T06:22:27.662Z,4.18
2022-08-10T06:24:30.909Z,4.13
2022-08-10T06:26:32.641Z,4.63
2022-08-10T06:28:37.718Z,4.60
2022-08-10T06:30:40.152Z,3.30
2022-08-10T06:32:42.263Z,4.10
2022-08-10T06:34:45.604Z,4.10
2022-08-10T06:36:48.022Z,4.13
2022-08-10T06:38:50.760Z,3.40
2022-08-10T06:40:55.586Z,2.70
2022-08-10T06:42:58.443Z,2.90
2022-08-10T06:45:05.062Z,2.10
2022-08-10T06:47:07.880Z,1.85
2022-08-10T06:49:13.409Z,1.73
2022-08-10T06:51:18.114Z,1.48
2022-08-10T06:53:23.443Z,2.30
2022-08-10T06:55:39.850Z,1.90
2022-08-10T06:57:59.455Z,1.88
2022-08-10T07:00:02.753Z,1.58
2022-08-10T07:02:07.660Z,1.40
2022-08-10T07:04:11.502Z,1.23
2022-08-10T07:06:14.057Z,1.48
2022-08-10T07:08:18.606Z,1.67
2022-08-10T07:10:21.358Z,1.75
2022-08-10T07:12:25.522Z,1.40
2022-08-10T07:14:27.645Z,1.35
2022-08-10T07:16:31.480Z,2.03
2022-08-10T07:18:36.327Z,2.08
2022-08-10T07:20:39.298Z,1.35
2022-08-10T07:23:27.175Z,1.80
2022-08-10T07:25:07.021Z,1.50
2022-08-10T07:27:09.300Z,1.40
2022-08-10T07:29:52.926Z,0.98
2022-08-10T07:31:55.704Z,1.38
2022-08-10T07:33:55.240Z,1.20
2022-08-10T07:35:57.396Z,1.75
2022-08-10T07:37:59.780Z,1.50
2022-08-10T07:40:04.749Z,1.88
2022-08-10T07:42:07.760Z,1.20
2022-08-10T07:44:10.005Z,1.27
2022-08-10T07:46:14.327Z,1.48
2022-08-10T07:48:29.807Z,1.05
2022-08-10T07:50:33.002Z,1.05
2022-08-10T07:52:38.251Z,1.20
2022-08-10T07:54:44.121Z,1.42
2022-08-10T07:56:49.310Z,1.00
2022-08-10T07:58:54.595Z,1.30
2022-08-10T08:00:57.070Z,1.80
2022-08-10T08:05:02.231Z,1.38
2022-08-10T08:07:04.570Z,1.20
2022-08-10T08:09:06.101Z,1.23
2022-08-10T08:11:08.784Z,1.20
2022-08-10T08:13:10.574Z,1.20
2022-08-10T08:16:20.295Z,0.90
2022-08-10T08:17:38.368Z,1.10
2022-08-10T08:19:46.159Z,1.00
2022-08-10T08:24:08.725Z,1.30
2022-08-10T08:24:31.879Z,1.75
2022-08-10T08:26:36.658Z,1.48
2022-08-10T08:28:38.717Z,0.88
2022-08-10T08:30:43.497Z,1.13
2022-08-10T08:32:48.908Z,1.23
2022-08-10T08:34:55.005Z,1.40
2022-08-10T08:36:59.833Z,0.90
2022-08-10T08:39:01.520Z,0.90
2022-08-10T08:41:22.740Z,1.08
2022-08-10T08:43:32.645Z,1.23
2022-08-10T08:46:01.211Z,1.10
2022-08-10T08:48:25.266Z,1.23
2022-08-10T08:50:45.627Z,0.70
2022-08-10T08:53:21.617Z,1.05
2022-08-10T08:56:03.429Z,0.95
2022-08-10T08:58:08.435Z,1.55
2022-08-10T09:00:19.493Z,1.13
2022-08-10T09:02:39.766Z,1.25
2022-08-10T09:04:47.144Z,0.88
2022-08-10T09:07:59.033Z,0.63
2022-08-10T09:09:45.579Z,0.98
2022-08-10T09:11:50.152Z,0.80
2022-08-10T09:13:51.628Z,0.90
2022-08-10T09:15:55.539Z,0.95
2022-08-10T09:18:03.033Z,1.08
2022-08-10T09:20:23.166Z,0.68
2022-08-10T09:22:44.936Z,1.27
2022-08-10T09:24:59.544Z,1.00
2022-08-10T09:27:03.984Z,1.08
2022-08-10T09:29:13.112Z,0.75
2022-08-10T09:31:22.310Z,1.13
2022-08-10T09:36:21.263Z,1.00
2022-08-10T09:36:29.039Z,0.70
2022-08-10T09:39:01.583Z,0.57
2022-08-10T09:41:21.725Z,0.80
2022-08-10T09:43:38.695Z,0.85
2022-08-10T09:46:06.794Z,0.65
2022-08-10T09:48:18.579Z,1.00
2022-08-10T09:50:22.867Z,0.80
2022-08-10T09:52:30.484Z,0.65
2022-08-10T09:54:51.021Z,0.90
2022-08-10T09:57:24.537Z,0.63
2022-08-10T09:59:59.930Z,0.70
2022-08-10T10:02:00.339Z,0.70
2022-08-10T10:04:18.781Z,0.70
2022-08-10T10:06:23.855Z,0.50
2022-08-10T10:08:35.763Z,0.70
2022-08-10T10:10:47.806Z,0.60
2022-08-10T10:12:50.495Z,0.63
2022-08-10T10:15:24.646Z,0.60
2022-08-10T10:17:40.652Z,0.60
2022-08-10T10:19:48.180Z,0.70
2022-08-10T10:22:14.687Z,0.70
2022-08-10T10:24:25.063Z,1.10
2022-08-10T10:26:35.675Z,0.55
2022-08-10T10:31:26.227Z,0.70
2022-08-10T10:33:41.428Z,0.70
2022-08-10T10:35:52.345Z,0.30
2022-08-10T10:38:00.920Z,0.90
2022-08-10T10:40:05.147Z,0.90
2022-08-10T10:42:28.956Z,0.60
2022-08-10T10:44:50.177Z,0.77
2022-08-10T10:46:54.756Z,0.70
2022-08-10T10:48:59.239Z,0.73
2022-08-10T10:51:10.294Z,0.90
2022-08-10T10:53:21.430Z,0.63
2022-08-10T10:55:32.276Z,0.80
2022-08-10T10:57:59.227Z,0.80
2022-08-10T11:00:05.003Z,0.90
2022-08-10T11:02:27.269Z,0.60
2022-08-10T11:04:34.751Z,0.70
2022-08-10T11:06:54.483Z,0.50
2022-08-10T11:08:57.457Z,0.70
2022-08-10T11:11:02.823Z,1.10
2022-08-10T11:14:25.529Z,0.90
2022-08-10T11:15:29.350Z,1.00
2022-08-10T11:17:38.660Z,0.60
2022-08-10T11:20:00.347Z,0.60
2022-08-10T11:22:16.675Z,0.50
2022-08-10T11:24:48.979Z,0.68
2022-08-10T11:26:51.443Z,0.65
2022-08-10T11:29:16.307Z,0.60
2022-08-10T11:31:17.877Z,0.90
2022-08-10T11:33:32.559Z,0.73
2022-08-10T11:35:46.519Z,0.50
2022-08-10T11:38:32.159Z,0.63
2022-08-10T11:40:28.173Z,0.60
2022-08-10T11:42:40.849Z,0.68
2022-08-10T11:44:42.408Z,0.73
2022-08-10T11:46:59.410Z,0.57
2022-08-10T11:49:08.498Z,0.80
2022-08-10T11:51:14.184Z,0.90
2022-08-10T11:53:19.749Z,1.13
2022-08-10T11:55:22.847Z,0.65
2022-08-10T11:57:53.232Z,1.15
2022-08-10T11:59:58.118Z,0.93
2022-08-10T12:02:00.602Z,0.80
2022-08-10T12:04:07.538Z,0.65
2022-08-10T12:06:33.719Z,0.50
2022-08-10T12:10:07.219Z,0.70
2022-08-10T12:11:03.558Z,0.93
2022-08-10T12:13:08.317Z,0.80
2022-08-10T12:15:12.754Z,0.80
2022-08-10T12:17:24.071Z,0.60
2022-08-10T12:19:59.693Z,0.90
2022-08-10T12:22:05.883Z,1.05
2022-08-10T12:24:10.735Z,0.73
2022-08-10T12:26:19.043Z,0.77
2022-08-10T12:28:49.490Z,0.70
2022-08-10T12:30:49.061Z,0.93
2022-08-10T12:33:00.975Z,0.80
2022-08-10T12:35:22.621Z,0.70
2022-08-10T12:37:38.462Z,0.65
2022-08-10T12:39:50.475Z,0.95
2022-08-10T12:42:06.629Z,0.90
2022-08-10T12:44:35.765Z,0.75
2022-08-10T12:46:51.045Z,0.70
2022-08-10T12:49:11.527Z,0.80
2022-08-10T12:51:21.591Z,0.80
2022-08-10T12:53:29.536Z,1.02
2022-08-10T12:55:31.540Z,0.93
2022-08-10T12:57:35.779Z,0.60
2022-08-10T12:59:43.403Z,0.57
2022-08-10T13:02:07.737Z,0.70
2022-08-10T13:04:16.263Z,0.80
2022-08-10T13:06:26.576Z,1.25
2022-08-10T13:10:50.132Z,0.90
2022-08-10T13:12:54.338Z,0.85
2022-08-10T13:15:25.248Z,1.05
2022-08-10T13:17:38.729Z,1.00
2022-08-10T13:19:56.321Z,1.00
2022-08-10T13:22:02.751Z,1.20
2022-08-10T13:24:05.273Z,0.82
2022-08-10T13:26:10.308Z,0.95
2022-08-10T13:28:35.693Z,1.00
2022-08-10T13:30:39.515Z,1.20
2022-08-10T13:32:47.630Z,0.93
2022-08-10T13:34:51.471Z,1.00
2022-08-10T13:36:56.393Z,1.25
2022-08-10T13:38:58.687Z,0.82
2022-08-10T13:41:00.846Z,0.93
2022-08-10T13:43:06.222Z,1.08
2022-08-10T13:45:15.394Z,0.88
2022-08-10T13:47:18.063Z,1.38
2022-08-10T13:49:21.571Z,0.90
2022-08-10T13:51:57.502Z,1.08
2022-08-10T13:53:51.134Z,1.15
2022-08-10T13:55:56.535Z,1.30
2022-08-10T13:58:01.053Z,1.00
2022-08-10T14:00:34.381Z,1.00
2022-08-10T14:02:38.891Z,0.95
2022-08-10T14:04:46.850Z,1.00
2022-08-10T14:06:54.306Z,1.08
2022-08-10T14:09:11.172Z,1.27
2022-08-10T14:11:14.497Z,1.27
2022-08-10T14:15:20.292Z,0.98
2022-08-10T14:17:22.231Z,1.00
2022-08-10T14:19:28.010Z,1.13
2022-08-10T14:21:31.068Z,1.42
2022-08-10T14:23:32.550Z,0.90
2022-08-10T14:25:45.163Z,0.93
2022-08-10T14:28:03.334Z,1.20
2022-08-10T14:30:06.854Z,0.98
2022-08-10T14:32:09.204Z,1.00
2022-08-10T14:34:12.499Z,0.80
2022-08-10T14:36:22.849Z,0.88
2022-08-10T14:38:31.939Z,0.85
2022-08-10T14:40:40.688Z,1.15
2022-08-10T14:42:51.559Z,1.02
2022-08-10T14:45:03.032Z,0.80
2022-08-10T14:47:51.507Z,1.00
2022-08-10T14:49:28.676Z,1.15
2022-08-10T14:51:44.446Z,1.00
2022-08-10T14:53:51.888Z,0.90
2022-08-10T14:56:01.148Z,1.00
2022-08-10T14:58:16.847Z,0.90
2022-08-10T15:00:35.166Z,0.70
2022-08-10T15:02:56.020Z,1.00
2022-08-10T15:04:59.906Z,0.90
2022-08-10T15:07:04.639Z,0.70
2022-08-10T15:09:19.651Z,1.55
2022-08-10T15:12:14.446Z,0.82
2022-08-10T15:14:33.969Z,1.13
2022-08-10T15:16:12.882Z,0.65
2022-08-10T15:18:15.409Z,0.90
2022-08-10T15:20:21.573Z,1.10
2022-08-10T15:22:37.223Z,0.82
2022-08-10T15:25:00.238Z,0.88
2022-08-10T15:27:04.166Z,1.10
2022-08-10T15:29:23.426Z,0.90
2022-08-10T15:31:28.648Z,0.77
2022-08-10T15:34:04.964Z,0.90
2022-08-10T15:36:25.990Z,0.80
2022-08-10T15:38:34.985Z,1.10
2022-08-10T15:40:49.654Z,1.00
2022-08-10T15:42:55.312Z,1.10
2022-08-10T15:45:00.309Z,1.02
2022-08-10T15:47:02.954Z,0.85
2022-08-10T15:49:09.742Z,0.93
2022-08-10T15:51:33.728Z,0.85
2022-08-10T15:54:01.961Z,0.80
2022-08-10T15:56:15.307Z,0.85
2022-08-10T15:58:16.937Z,1.17
2022-08-10T16:00:19.647Z,0.93
2022-08-10T16:02:24.784Z,0.93
2022-08-10T16:04:32.116Z,1.00
2022-08-10T16:06:38.269Z,1.38
2022-08-10T16:08:55.953Z,0.73
2022-08-10T16:11:03.652Z,1.08
2022-08-10T16:13:59.349Z,1.10
2022-08-10T16:15:30.247Z,1.20
2022-08-10T16:17:32.557Z,1.10
2022-08-10T16:19:56.835Z,1.60
2022-08-10T16:22:33.747Z,1.30
2022-08-10T16:24:25.899Z,1.25
2022-08-10T16:26:28.588Z,0.80
2022-08-10T16:28:35.364Z,0.90
2022-08-10T16:30:49.059Z,0.88
2022-08-10T16:32:57.264Z,0.70
2022-08-10T16:35:01.836Z,1.35
2022-08-10T16:37:11.098Z,1.35
2022-08-10T16:39:59.173Z,1.15
2022-08-10T16:42:04.081Z,1.55
2022-08-10T16:44:04.913Z,1.08
2022-08-10T16:46:11.584Z,1.20
2022-08-10T16:48:15.276Z,1.05
2022-08-10T16:50:41.713Z,1.33
2022-08-10T16:52:44.882Z,1.30
2022-08-10T16:54:50.090Z,1.58
2022-08-10T16:56:52.511Z,1.20
2022-08-10T16:58:55.618Z,1.75
2022-08-10T17:01:07.941Z,1.70
2022-08-10T17:04:04.396Z,1.25
2022-08-10T17:06:03.697Z,1.98
2022-08-10T17:08:04.272Z,1.60
2022-08-10T17:10:08.059Z,1.55
2022-08-10T17:12:11.635Z,1.80
2022-08-10T17:14:13.660Z,1.20
2022-08-10T17:16:17.104Z,1.80
2022-08-10T17:20:32.783Z,2.45
2022-08-10T17:22:36.086Z,1.63
2022-08-10T17:24:40.703Z,1.50
2022-08-10T17:26:44.010Z,1.92
2022-08-10T17:28:50.079Z,1.80
2022-08-10T17:30:58.192Z,1.63
2022-08-10T17:33:02.332Z,1.60
2022-08-10T17:35:07.073Z,1.77
2022-08-10T17:37:16.463Z,1.55
2022-08-10T17:39:22.787Z,1.58
2022-08-10T17:41:27.563Z,1.48
2022-08-10T17:43:58.280Z,1.98
2022-08-10T17:45:52.878Z,1.48
2022-08-10T17:47:57.146Z,2.03
2022-08-10T17:50:00.178Z,1.65
2022-08-10T17:52:04.497Z,1.88
2022-08-10T17:54:09.130Z,2.00
2022-08-10T17:56:10.928Z,2.72
2022-08-10T17:58:13.847Z,2.67
2022-08-10T18:00:15.901Z,2.03
2022-08-10T18:02:19.509Z,1.70
2022-08-10T18:04:21.522Z,2.30
2022-08-10T18:06:23.415Z,1.70
2022-08-10T18:08:26.048Z,1.40
2022-08-10T18:10:31.581Z,1.48
2022-08-10T18:14:44.315Z,1.35
2022-08-10T18:16:46.400Z,1.48
2022-08-10T18:18:49.764Z,1.58
2022-08-10T18:21:06.232Z,1.40
2022-08-10T18:23:08.253Z,1.40
2022-08-10T18:25:16.138Z,1.35
2022-08-10T18:27:18.601Z,2.45
2022-08-10T18:29:21.863Z,1.25
2022-08-10T18:31:25.677Z,1.13
2022-08-10T18:33:32.015Z,1.20
2022-08-10T18:35:34.710Z,1.20
2022-08-10T18:37:37.231Z,1.23
2022-08-10T18:39:40.392Z,1.63
2022-08-10T18:42:00.440Z,1.23
2022-08-10T18:44:12.090Z,1.27
2022-08-10T18:46:16.888Z,1.52
2022-08-10T18:48:20.063Z,1.15
2022-08-10T18:50:24.766Z,1.60
2022-08-10T18:52:29.842Z,1.63
2022-08-10T18:54:44.415Z,1.60
2022-08-10T18:56:57.769Z,1.48
2022-08-10T18:59:08.537Z,1.52
2022-08-10T19:01:10.069Z,1.27
2022-08-10T19:03:53.726Z,1.27
2022-08-10T19:06:07.503Z,1.33
2022-08-10T19:08:09.843Z,1.20
2022-08-10T19:10:25.055Z,1.88
2022-08-10T19:12:31.544Z,1.42
2022-08-10T19:14:36.254Z,1.38
2022-08-10T19:16:59.096Z,1.52
2022-08-10T19:19:21.647Z,1.40
2022-08-10T19:21:26.940Z,1.30
2022-08-10T19:23:43.918Z,1.10
2022-08-10T19:26:40.810Z,1.58
2022-08-10T19:28:30.634Z,1.23
2022-08-10T19:30:40.527Z,1.73
2022-08-10T19:33:02.583Z,1.15
2022-08-10T19:35:07.632Z,1.42
2022-08-10T19:37:32.370Z,1.88
2022-08-10T19:39:50.246Z,1.10
2022-08-10T19:42:11.523Z,1.50
2022-08-10T19:44:42.927Z,1.42
2022-08-10T19:47:07.583Z,1.83
2022-08-10T19:49:27.955Z,1.30
2022-08-10T19:51:33.311Z,1.45
2022-08-10T19:53:38.298Z,1.30
2022-08-10T19:55:48.086Z,1.30
2022-08-10T19:58:01.380Z,1.80
2022-08-10T20:00:19.223Z,1.60
2022-08-10T20:02:24.664Z,1.30
2022-08-10T20:06:39.930Z,1.60
2022-08-10T20:08:44.343Z,1.67
2022-08-10T20:10:45.806Z,1.73
2022-08-10T20:12:57.077Z,1.33
2022-08-10T20:15:07.551Z,2.20
2022-08-10T20:17:15.471Z,1.80
2022-08-10T20:19:53.198Z,2.30
2022-08-10T20:22:02.143Z,1.50
2022-08-10T20:24:09.570Z,1.45
2022-08-10T20:26:14.866Z,1.80
2022-08-10T20:28:21.066Z,1.88
2022-08-10T20:30:26.285Z,1.67
2022-08-10T20:32:33.220Z,1.40
2022-08-10T20:34:43.421Z,1.98
2022-08-10T20:36:54.918Z,1.90
2022-08-10T20:39:15.266Z,1.42
2022-08-10T20:41:45.933Z,1.85
2022-08-10T20:43:48.428Z,2.47
2022-08-10T20:46:08.332Z,2.20
2022-08-10T20:48:36.729Z,1.90
2022-08-10T20:50:48.626Z,2.40
2022-08-10T20:52:51.724Z,2.33
2022-08-10T20:54:55.003Z,2.58
2022-08-10T20:57:54.097Z,1.92
2022-08-10T21:00:04.290Z,2.17
2022-08-10T21:02:47.749Z,2.38
2022-08-10T21:04:53.065Z,2.67
2022-08-10T21:07:05.512Z,2.40
2022-08-10T21:09:25.919Z,2.05
2022-08-10T21:11:37.559Z,2.10
2022-08-10T21:13:58.310Z,2.00
2022-08-10T21:15:59.779Z,1.80
2022-08-10T21:18:13.293Z,2.35
2022-08-10T21:22:53.642Z,2.25
2022-08-10T21:24:55.186Z,2.10
2022-08-10T21:25:41.617Z,1.83
2022-08-10T21:27:08.155Z,2.28
2022-08-10T21:29:37.970Z,2.15
2022-08-10T21:31:56.833Z,1.98
2022-08-10T21:34:01.064Z,2.50
2022-08-10T21:36:18.340Z,3.05
2022-08-10T21:38:31.315Z,2.45
2022-08-10T21:41:18.726Z,2.33
2022-08-10T21:43:59.228Z,2.33
2022-08-10T21:46:38.755Z,1.67
2022-08-10T21:49:16.998Z,2.03
2022-08-10T21:52:01.304Z,2.17
2022-08-10T21:54:29.111Z,2.67
2022-08-10T21:56:51.135Z,2.22
2022-08-10T21:59:26.556Z,2.28
2022-08-10T22:01:53.352Z,2.97
2022-08-10T22:04:14.675Z,2.35
2022-08-10T22:06:52.215Z,2.00
2022-08-10T22:09:20.900Z,2.05
2022-08-10T22:11:42.987Z,2.72
2022-08-10T22:14:05.018Z,2.75
2022-08-10T22:16:26.795Z,2.28
2022-08-10T22:19:02.118Z,2.58
2022-08-10T22:21:45.175Z,2.40
2022-08-10T22:24:21.729Z,2.40
2022-08-10T22:27:01.236Z,2.47
2022-08-10T22:29:25.950Z,2.45
2022-08-10T22:32:25.779Z,2.45
2022-08-10T22:35:01.388Z,2.47
2022-08-10T22:38:07.764Z,2.88
2022-08-10T22:40:28.403Z,2.90
2022-08-10T22:43:11.145Z,3.10
2022-08-10T22:45:35.187Z,3.45
2022-08-10T22:47:55.346Z,2.75
2022-08-10T22:50:00.175Z,3.08
2022-08-10T22:52:16.959Z,2.22
2022-08-10T22:54:40.258Z,2.42
2022-08-10T22:57:00.436Z,3.03
2022-08-10T22:59:01.890Z,2.78
2022-08-10T23:01:12.002Z,3.25
2022-08-10T23:03:21.810Z,3.08
2022-08-10T23:05:38.337Z,2.85
2022-08-10T23:07:48.298Z,3.25
2022-08-10T23:10:00.163Z,3.03
2022-08-10T23:12:04.938Z,2.90
2022-08-10T23:14:07.831Z,2.95
2022-08-10T23:16:39.431Z,2.92
2022-08-10T23:19:02.420Z,2.72
2022-08-10T23:21:04.074Z,3.00
2022-08-10T23:23:09.959Z,2.90
2022-08-10T23:25:13.901Z,3.05
2022-08-10T23:27:37.534Z,3.17
2022-08-10T23:29:40.333Z,3.42
2022-08-10T23:31:58.346Z,3.00
2022-08-10T23:34:08.943Z,2.40
2022-08-10T23:36:34.058Z,3.63
2022-08-10T23:38:34.504Z,3.17
2022-08-10T23:40:36.542Z,3.10
2022-08-10T23:42:39.666Z,2.67
2022-08-10T23:44:46.429Z,2.40
2022-08-10T23:46:49.144Z,2.60
2022-08-10T23:48:53.010Z,2.85
2022-08-10T23:50:58.559Z,3.25
2022-08-10T23:53:02.387Z,2.70
2022-08-10T23:55:19.602Z,3.58
2022-08-10T23:57:25.079Z,2.97
2022-08-10T23:59:27.484Z,2.97
